Time;durP1;ratioP1;P1;durP2;ratioP2;P2;SDS_P1;SDS_P2;PMS_P1;PMS_P2;Temp;Humidity;BMP_temperature;BMP_pressure;BME280_temperature;BME280_humidity;BME280_pressure;Samples;Min_cycle;Max_cycle;Signal;HPM_P1;HPM_P2
2022/07/19 00:01:40;;;;;;;0.40;0.40;;;18.70;67.80;;;;;;5016802;28;20167;-71
2022/07/19 00:04:06;;;;;;;0.53;0.53;;;18.60;66.70;;;;;;5016419;28;20175;-71
2022/07/19 00:06:32;;;;;;;0.40;0.40;;;18.50;66.50;;;;;;5016577;28;20545;-71
2022/07/19 00:08:58;;;;;;;0.40;0.40;;;18.50;65.90;;;;;;5016184;28;20426;-71
2022/07/19 00:11:23;;;;;;;1.53;0.63;;;18.60;64.50;;;;;;5016270;28;20642;-72
2022/07/19 00:13:49;;;;;;;0.63;0.63;;;18.70;67.30;;;;;;5016089;28;20406;-71
2022/07/19 00:16:14;;;;;;;1.17;0.70;;;18.70;68.40;;;;;;5016150;28;20172;-72
2022/07/19 00:18:41;;;;;;;0.70;0.70;;;18.70;65.20;;;;;;5014678;28;20341;-71
2022/07/19 00:21:07;;;;;;;0.40;0.40;;;18.70;67.30;;;;;;5016210;28;20255;-71
2022/07/19 00:23:32;;;;;;;0.80;0.70;;;18.60;67.70;;;;;;5016163;28;20431;-71
2022/07/19 00:25:58;;;;;;;0.80;0.63;;;18.50;67.90;;;;;;5016041;28;20775;-71
2022/07/19 00:28:24;;;;;;;0.70;0.70;;;18.40;67.80;;;;;;5015553;28;20176;-71
2022/07/19 00:30:49;;;;;;;0.50;0.50;;;18.40;67.70;;;;;;5015881;28;20175;-71
2022/07/19 00:33:15;;;;;;;0.50;0.50;;;18.40;68.40;;;;;;5016024;28;20536;-71
2022/07/19 00:35:41;;;;;;;0.63;0.63;;;18.40;67.30;;;;;;5015879;28;20211;-71
2022/07/19 00:38:09;;;;;;;0.70;0.70;;;18.40;68.10;;;;;;5015558;28;20203;-71
2022/07/19 00:40:36;;;;;;;0.90;0.73;;;18.40;68.90;;;;;;5015545;28;20627;-71
2022/07/19 00:43:02;;;;;;;0.60;0.60;;;18.40;70.10;;;;;;5016056;28;20814;-71
2022/07/19 00:45:27;;;;;;;0.77;0.77;;;18.30;69.90;;;;;;5015575;28;20452;-71
2022/07/19 00:47:53;;;;;;;0.63;0.63;;;18.20;71.00;;;;;;5014933;28;20469;-71
2022/07/19 00:50:20;;;;;;;1.80;0.73;;;18.10;71.30;;;;;;5015538;28;20230;-72
2022/07/19 00:52:50;;;;;;;0.43;0.43;;;18.20;69.10;;;;;;5015620;28;20429;-71
2022/07/19 00:55:18;;;;;;;0.50;0.50;;;18.20;67.80;;;;;;5015603;28;20465;-71
2022/07/19 00:57:45;;;;;;;0.40;0.40;;;18.30;69.40;;;;;;5015396;28;20406;-71
2022/07/19 01:00:13;;;;;;;0.60;0.50;;;18.30;69.90;;;;;;5015174;28;20553;-72
2022/07/19 01:02:39;;;;;;;0.50;0.50;;;18.20;69.70;;;;;;5015318;28;20460;-71
2022/07/19 01:05:09;;;;;;;0.63;0.63;;;18.20;70.20;;;;;;5015356;28;20544;-71
2022/07/19 01:07:37;;;;;;;0.50;0.50;;;18.20;71.60;;;;;;5015211;28;20888;-71
2022/07/19 01:10:04;;;;;;;1.20;0.90;;;18.20;70.30;;;;;;5013818;28;20529;-71
2022/07/19 01:12:31;;;;;;;0.60;0.60;;;18.10;70.80;;;;;;5015326;28;20915;-71
2022/07/19 01:14:57;;;;;;;1.23;0.70;;;18.10;71.00;;;;;;5015090;28;20434;-71
2022/07/19 01:17:23;;;;;;;0.70;0.70;;;18.10;67.50;;;;;;5015058;28;20830;-71
2022/07/19 01:19:49;;;;;;;0.50;0.50;;;18.20;66.60;;;;;;5014856;28;20843;-71
2022/07/19 01:22:15;;;;;;;0.43;0.43;;;18.30;67.60;;;;;;5014949;28;20418;-71
2022/07/19 01:24:40;;;;;;;0.40;0.40;;;18.40;67.60;;;;;;5014848;28;20195;-71
2022/07/19 01:27:07;;;;;;;0.50;0.50;;;18.40;66.90;;;;;;5014836;28;20171;-71
2022/07/19 01:29:36;;;;;;;0.53;0.53;;;18.40;66.00;;;;;;5014859;28;20250;-71
2022/07/19 01:32:05;;;;;;;0.57;0.57;;;18.40;65.10;;;;;;5013564;28;20424;-71
2022/07/19 01:34:31;;;;;;;0.40;0.40;;;18.50;63.30;;;;;;5014895;28;20494;-71
2022/07/19 01:36:57;;;;;;;0.60;0.60;;;18.60;66.00;;;;;;5014447;28;20978;-72
2022/07/19 01:39:22;;;;;;;0.97;0.87;;;18.60;66.40;;;;;;5014438;28;20545;-71
2022/07/19 01:41:48;;;;;;;1.40;1.30;;;18.60;66.50;;;;;;5014563;28;20172;-71
2022/07/19 01:44:13;;;;;;;0.90;0.90;;;18.40;67.00;;;;;;5014580;28;20179;-71
2022/07/19 01:46:39;;;;;;;0.87;0.77;;;18.30;67.90;;;;;;5014497;28;20175;-72
2022/07/19 01:49:05;;;;;;;0.40;0.40;;;18.20;69.50;;;;;;5014378;28;20231;-71
2022/07/19 01:51:30;;;;;;;0.70;0.70;;;18.20;70.30;;;;;;5014383;28;20237;-71
2022/07/19 01:53:56;;;;;;;0.67;0.67;;;18.10;71.30;;;;;;5014322;28;20644;-71
2022/07/19 01:56:22;;;;;;;0.70;0.70;;;18.10;72.60;;;;;;5014392;28;20178;-71
2022/07/19 01:58:48;;;;;;;0.77;0.77;;;18.10;71.30;;;;;;5013813;28;20222;-71
2022/07/19 02:01:13;;;;;;;0.60;0.60;;;18.10;71.70;;;;;;5013770;28;20163;-71
2022/07/19 02:03:39;;;;;;;0.70;0.67;;;18.00;73.80;;;;;;5014355;28;20422;-70
2022/07/19 02:06:05;;;;;;;0.73;0.73;;;18.00;72.40;;;;;;5014384;28;20294;-71
2022/07/19 02:08:31;;;;;;;1.50;0.80;;;17.90;71.50;;;;;;5012580;28;20306;-71
2022/07/19 02:10:56;;;;;;;1.13;0.80;;;17.90;72.60;;;;;;5014311;28;20186;-71
2022/07/19 02:13:22;;;;;;;0.73;0.73;;;17.80;72.50;;;;;;5014141;28;20747;-71
2022/07/19 02:15:48;;;;;;;0.70;0.70;;;17.80;72.20;;;;;;5014130;28;20195;-71
2022/07/19 02:18:14;;;;;;;0.70;0.70;;;17.90;70.30;;;;;;5013814;28;20649;-71
2022/07/19 02:20:40;;;;;;;0.60;0.60;;;17.90;72.00;;;;;;5013792;28;20206;-71
2022/07/19 02:23:06;;;;;;;0.90;0.90;;;17.90;73.00;;;;;;5014353;28;20414;-71
2022/07/19 02:25:31;;;;;;;0.60;0.60;;;17.80;71.90;;;;;;5013882;28;20202;-71
2022/07/19 02:27:57;;;;;;;0.97;0.97;;;17.80;72.80;;;;;;5013749;28;20182;-71
2022/07/19 02:30:23;;;;;;;0.60;0.60;;;17.70;71.90;;;;;;5013872;28;20240;-71
2022/07/19 02:32:48;;;;;;;0.40;0.40;;;17.80;71.10;;;;;;5013874;28;20171;-71
2022/07/19 02:35:14;;;;;;;0.73;0.73;;;17.80;72.00;;;;;;5013687;28;20542;-71
2022/07/19 02:37:41;;;;;;;0.40;0.40;;;17.80;72.00;;;;;;5013750;28;20764;-71
2022/07/19 02:40:07;;;;;;;0.53;0.53;;;17.80;73.20;;;;;;5013764;28;20199;-72
2022/07/19 02:42:33;;;;;;;0.40;0.40;;;17.80;72.60;;;;;;5013808;28;20406;-71
2022/07/19 02:44:59;;;;;;;0.40;0.40;;;17.80;70.90;;;;;;5013748;28;20402;-71
2022/07/19 02:47:25;;;;;;;1.37;0.63;;;17.80;70.20;;;;;;5013537;28;20179;-71
2022/07/19 02:49:50;;;;;;;0.47;0.47;;;17.80;70.40;;;;;;5013621;28;20191;-71
2022/07/19 02:52:16;;;;;;;0.73;0.73;;;17.90;69.30;;;;;;5013620;28;20411;-72
2022/07/19 02:54:42;;;;;;;0.37;0.37;;;17.90;71.50;;;;;;5013816;28;20399;-71
2022/07/19 02:57:08;;;;;;;0.40;0.40;;;17.80;71.80;;;;;;5013384;28;20410;-71
2022/07/19 02:59:33;;;;;;;1.37;0.70;;;17.80;72.80;;;;;;5013346;28;20715;-71
2022/07/19 03:01:59;;;;;;;0.70;0.70;;;17.70;73.90;;;;;;5013547;28;20222;-71
2022/07/19 03:04:25;;;;;;;0.47;0.40;;;17.70;73.70;;;;;;5013501;28;20163;-72
2022/07/19 03:06:50;;;;;;;0.70;0.70;;;17.60;74.30;;;;;;5013700;28;20644;-72
2022/07/19 03:09:16;;;;;;;0.50;0.50;;;17.50;75.20;;;;;;5013241;28;20430;-71
2022/07/19 03:11:42;;;;;;;0.90;0.90;;;17.50;75.80;;;;;;5015932;28;20234;-71
2022/07/19 03:14:07;;;;;;;0.40;0.40;;;17.40;74.20;;;;;;5017541;28;20505;-72
2022/07/19 03:16:33;;;;;;;0.40;0.40;;;17.40;74.40;;;;;;5017205;28;20176;-70
2022/07/19 03:18:59;;;;;;;0.50;0.50;;;17.40;74.40;;;;;;5016820;28;20199;-71
2022/07/19 03:21:24;;;;;;;0.90;0.90;;;17.30;75.70;;;;;;5017119;28;20567;-71
2022/07/19 03:23:50;;;;;;;0.40;0.40;;;17.20;75.00;;;;;;5016997;28;20639;-71
2022/07/19 03:26:16;;;;;;;0.53;0.53;;;17.20;76.00;;;;;;5017205;28;20166;-71
2022/07/19 03:28:41;;;;;;;1.17;0.87;;;17.20;75.70;;;;;;5015639;28;20589;-71
2022/07/19 03:31:07;;;;;;;0.30;0.30;;;17.20;76.10;;;;;;5016972;28;20183;-71
2022/07/19 03:33:33;;;;;;;0.50;0.50;;;17.10;74.30;;;;;;5015862;28;20183;-71
2022/07/19 03:35:59;;;;;;;0.50;0.50;;;17.10;73.80;;;;;;5017091;28;20501;-72
2022/07/19 03:38:25;;;;;;;1.37;1.27;;;17.20;75.20;;;;;;5016651;28;20594;-71
2022/07/19 03:40:51;;;;;;;1.23;0.80;;;17.30;73.80;;;;;;5016723;28;20211;-71
2022/07/19 03:43:17;;;;;;;7.07;0.60;;;17.40;74.50;;;;;;5016085;28;20186;-71
2022/07/19 03:45:44;;;;;;;0.30;0.30;;;17.50;73.20;;;;;;5016910;28;20398;-70
2022/07/19 03:48:10;;;;;;;0.50;0.50;;;17.50;73.30;;;;;;5016653;28;20402;-71
2022/07/19 03:50:37;;;;;;;0.60;0.60;;;17.50;75.10;;;;;;5015260;28;20446;-71
2022/07/19 03:53:03;;;;;;;0.80;0.80;;;17.50;75.30;;;;;;5016661;28;20950;-71
2022/07/19 03:55:29;;;;;;;2.83;0.90;;;17.40;73.80;;;;;;5016675;28;20537;-71
2022/07/19 03:57:55;;;;;;;0.73;0.47;;;17.30;75.50;;;;;;5016475;28;20237;-71
2022/07/19 04:00:20;;;;;;;0.93;0.93;;;17.20;75.60;;;;;;5016395;28;20207;-71
2022/07/19 04:02:46;;;;;;;1.70;1.17;;;17.20;76.20;;;;;;5016867;28;20704;-71
2022/07/19 04:05:12;;;;;;;0.47;0.40;;;17.20;75.90;;;;;;5016790;28;20653;-71
2022/07/19 04:07:37;;;;;;;0.60;0.60;;;17.20;76.50;;;;;;5016109;28;20624;-71
2022/07/19 04:10:04;;;;;;;1.57;1.47;;;17.30;77.00;;;;;;5016773;28;20202;-71
2022/07/19 04:12:29;;;;;;;0.60;0.60;;;17.30;78.90;;;;;;5016188;28;20589;-71
2022/07/19 04:14:55;;;;;;;0.70;0.63;;;17.20;79.90;;;;;;5016334;28;20418;-71
2022/07/19 04:17:21;;;;;;;0.93;0.80;;;17.20;78.90;;;;;;5016078;28;20172;-69
2022/07/19 04:19:46;;;;;;;0.73;0.73;;;17.20;78.50;;;;;;5015846;28;20199;-68
2022/07/19 04:22:12;;;;;;;0.40;0.40;;;17.40;86.80;;;;;;5015226;28;20655;-67
2022/07/19 04:24:38;;;;;;;1.87;1.03;;;17.80;83.10;;;;;;5014687;28;20195;-70
2022/07/19 04:27:03;;;;;;;0.43;0.43;;;18.10;77.40;;;;;;5015239;28;20230;-70
2022/07/19 04:29:29;;;;;;;0.60;0.60;;;18.10;75.90;;;;;;5015394;28;20257;-70
2022/07/19 04:31:55;;;;;;;0.50;0.50;;;18.00;76.00;;;;;;5014436;28;20207;-70
2022/07/19 04:34:20;;;;;;;1.00;0.87;;;17.80;77.70;;;;;;5016123;28;20207;-72
2022/07/19 04:36:46;;;;;;;0.50;0.50;;;17.60;78.70;;;;;;5016210;28;20221;-70
2022/07/19 04:39:11;;;;;;;0.73;0.73;;;17.50;80.50;;;;;;5015767;28;20210;-70
2022/07/19 04:41:37;;;;;;;0.87;0.87;;;17.40;80.70;;;;;;5016152;28;20175;-70
2022/07/19 04:44:03;;;;;;;2.27;1.10;;;17.30;80.20;;;;;;5014857;28;20540;-70
2022/07/19 04:46:28;;;;;;;0.90;0.90;;;17.40;81.80;;;;;;5015338;28;20176;-70
2022/07/19 04:48:54;;;;;;;0.50;0.50;;;17.70;80.50;;;;;;5015172;28;20191;-70
2022/07/19 04:51:20;;;;;;;0.57;0.57;;;18.10;80.70;;;;;;5015535;28;20172;-70
2022/07/19 04:53:45;;;;;;;0.63;0.50;;;18.50;79.90;;;;;;5013100;28;20183;-70
2022/07/19 04:56:11;;;;;;;0.60;0.60;;;18.80;78.70;;;;;;5015061;28;20188;-70
2022/07/19 04:58:36;;;;;;;0.60;0.60;;;18.90;78.00;;;;;;5013454;28;20184;-70
2022/07/19 05:01:02;;;;;;;0.70;0.70;;;19.10;75.90;;;;;;5015866;28;20294;-70
2022/07/19 05:03:28;;;;;;;0.63;0.63;;;19.30;72.40;;;;;;5014635;28;20255;-69
2022/07/19 05:05:53;;;;;;;0.50;0.50;;;19.80;72.60;;;;;;5013735;28;20182;-70
2022/07/19 05:08:19;;;;;;;1.23;1.13;;;20.20;72.20;;;;;;5013883;28;20673;-70
2022/07/19 05:10:45;;;;;;;0.73;0.70;;;20.80;71.30;;;;;;5015047;28;20197;-70
2022/07/19 05:13:10;;;;;;;0.70;0.70;;;21.50;68.10;;;;;;5012488;28;20512;-70
2022/07/19 05:15:36;;;;;;;0.60;0.60;;;22.20;65.30;;;;;;5013242;28;20208;-70
2022/07/19 05:18:02;;;;;;;0.57;0.57;;;22.80;63.50;;;;;;5013449;28;20182;-70
2022/07/19 05:20:27;;;;;;;0.80;0.80;;;23.40;62.40;;;;;;5012643;28;20217;-70
2022/07/19 05:22:53;;;;;;;0.60;0.60;;;24.00;61.00;;;;;;5013338;28;20182;-70
2022/07/19 05:25:19;;;;;;;0.50;0.50;;;24.20;59.90;;;;;;5013707;28;20186;-70
2022/07/19 05:27:45;;;;;;;1.43;0.70;;;23.80;59.50;;;;;;5013281;28;20186;-70
2022/07/19 05:30:11;;;;;;;0.50;0.50;;;23.50;59.40;;;;;;5014390;28;20195;-70
2022/07/19 05:32:37;;;;;;;0.50;0.50;;;23.20;60.70;;;;;;5015178;28;20266;-70
2022/07/19 05:35:03;;;;;;;0.73;0.70;;;23.10;61.70;;;;;;5014301;28;21029;-70
2022/07/19 05:37:29;;;;;;;0.87;0.53;;;22.90;60.30;;;;;;5014372;28;20523;-70
2022/07/19 05:39:54;;;;;;;0.50;0.50;;;22.80;61.30;;;;;;5014559;28;20462;-70
2022/07/19 05:42:20;;;;;;;0.50;0.40;;;22.70;60.80;;;;;;5014890;28;20176;-70
2022/07/19 05:44:46;;;;;;;0.87;0.70;;;22.70;62.60;;;;;;5014709;28;20169;-70
2022/07/19 05:47:11;;;;;;;0.67;0.67;;;22.90;62.50;;;;;;5014315;28;20181;-71
2022/07/19 05:49:37;;;;;;;1.10;0.73;;;23.00;61.00;;;;;;5014392;28;20201;-70
2022/07/19 05:52:03;;;;;;;0.50;0.50;;;23.10;59.60;;;;;;5014501;28;20563;-70
2022/07/19 05:54:29;;;;;;;1.00;0.90;;;23.20;61.10;;;;;;5014448;28;20265;-70
2022/07/19 05:56:54;;;;;;;0.80;0.70;;;23.70;59.30;;;;;;5014469;28;20409;-70
2022/07/19 05:59:22;;;;;;;0.50;0.43;;;24.40;59.20;;;;;;5014220;28;20199;-70
2022/07/19 06:01:48;;;;;;;0.50;0.50;;;24.90;56.30;;;;;;5014240;28;20199;-70
2022/07/19 06:04:14;;;;;;;0.50;0.50;;;25.00;54.80;;;;;;5014246;28;20410;-71
2022/07/19 06:06:40;;;;;;;0.90;0.80;;;24.90;55.90;;;;;;5014516;28;20381;-70
2022/07/19 06:09:07;;;;;;;0.40;0.40;;;24.90;55.60;;;;;;5014098;28;20190;-71
2022/07/19 06:11:33;;;;;;;0.60;0.60;;;24.70;55.90;;;;;;5013978;28;20167;-70
2022/07/19 06:13:59;;;;;;;0.70;0.70;;;24.60;57.10;;;;;;5014265;28;20756;-70
2022/07/19 06:16:25;;;;;;;0.70;0.70;;;24.60;56.30;;;;;;5014003;28;20933;-70
2022/07/19 06:18:51;;;;;;;0.50;0.50;;;24.60;56.80;;;;;;5013802;28;20418;-71
2022/07/19 06:21:18;;;;;;;0.60;0.60;;;24.80;57.50;;;;;;5014079;28;20206;-71
2022/07/19 06:23:44;;;;;;;0.70;0.60;;;25.20;58.20;;;;;;5014025;28;20175;-71
2022/07/19 06:26:11;;;;;;;0.50;0.50;;;26.00;53.70;;;;;;5014109;28;20403;-71
2022/07/19 06:28:37;;;;;;;0.50;0.50;;;27.00;52.10;;;;;;5013408;28;20414;-71
2022/07/19 06:31:04;;;;;;;0.80;0.80;;;28.10;51.80;;;;;;5012843;28;20759;-71
2022/07/19 06:33:29;;;;;;;0.93;0.93;;;28.60;46.90;;;;;;5013804;28;20461;-71
2022/07/19 06:35:55;;;;;;;0.60;0.50;;;28.70;47.40;;;;;;5014264;28;20381;-71
2022/07/19 06:38:21;;;;;;;0.63;0.60;;;28.90;49.30;;;;;;5013865;28;20233;-72
2022/07/19 06:40:47;;;;;;;0.47;0.47;;;28.90;45.30;;;;;;5013249;28;20242;-71
2022/07/19 06:43:12;;;;;;;1.03;0.77;;;28.50;42.40;;;;;;5012304;28;20439;-71
2022/07/19 06:45:38;;;;;;;0.53;0.53;;;28.70;45.60;;;;;;5014716;28;20229;-71
2022/07/19 06:48:05;;;;;;;0.40;0.40;;;29.20;40.70;;;;;;5019985;28;20171;-71
2022/07/19 06:50:31;;;;;;;1.13;0.60;;;29.80;40.70;;;;;;5019774;28;20426;-71
2022/07/19 06:52:56;;;;;;;0.60;0.50;;;30.60;38.00;;;;;;5018679;28;20668;-71
2022/07/19 06:55:22;;;;;;;0.90;0.67;;;31.60;36.10;;;;;;5018922;28;20406;-71
2022/07/19 06:57:48;;;;;;;0.70;0.70;;;32.00;36.40;;;;;;5019631;28;20175;-72
2022/07/19 07:00:14;;;;;;;0.60;0.60;;;32.20;35.80;;;;;;5019322;28;20307;-71
2022/07/19 07:02:40;;;;;;;0.53;0.53;;;32.10;36.10;;;;;;5019466;28;20249;-71
2022/07/19 07:05:08;;;;;;;0.77;0.77;;;32.60;35.50;;;;;;5020554;28;20525;-71
2022/07/19 07:07:34;;;;;;;0.43;0.43;;;32.90;33.50;;;;;;5019979;28;20962;-71
2022/07/19 07:10:02;;;;;;;1.17;0.70;;;34.10;32.50;;;;;;5018477;28;20682;-72
2022/07/19 07:12:28;;;;;;;1.00;0.70;;;34.80;31.60;;;;;;5019365;28;20410;-71
2022/07/19 07:14:54;;;;;;;0.70;0.70;;;35.00;30.30;;;;;;5018828;28;20464;-71
2022/07/19 07:17:21;;;;;;;0.50;0.50;;;34.10;31.60;;;;;;5017187;28;20468;-72
2022/07/19 07:19:46;;;;;;;0.60;0.60;;;33.70;31.60;;;;;;5019301;28;20797;-71
2022/07/19 07:22:12;;;;;;;0.80;0.80;;;33.20;31.60;;;;;;5018804;28;20465;-72
2022/07/19 07:24:38;;;;;;;0.50;0.50;;;33.00;32.50;;;;;;5018977;28;20183;-71
2022/07/19 07:27:03;;;;;;;0.70;0.70;;;32.70;32.90;;;;;;5020299;28;20214;-72
2022/07/19 07:29:29;;;;;;;1.20;0.70;;;32.00;33.50;;;;;;5017757;28;20269;-73
2022/07/19 07:31:56;;;;;;;0.67;0.67;;;32.00;32.80;;;;;;5019624;28;20214;-72
2022/07/19 07:34:22;;;;;;;0.80;0.80;;;32.40;32.90;;;;;;5020158;28;20406;-70
2022/07/19 07:36:48;;;;;;;0.60;0.60;;;33.50;32.20;;;;;;5018323;28;20214;-71
2022/07/19 07:39:14;;;;;;;0.50;0.50;;;35.00;29.90;;;;;;5019787;28;20492;-72
2022/07/19 07:41:40;;;;;;;0.90;0.90;;;36.20;29.00;;;;;;5020274;28;20172;-72
2022/07/19 07:44:05;;;;;;;0.50;0.50;;;37.50;28.50;;;;;;5019665;28;20266;-72
2022/07/19 07:46:33;;;;;;;0.50;0.50;;;38.70;27.20;;;;;;5019818;28;20438;-73
2022/07/19 07:48:59;;;;;;;0.70;0.60;;;39.90;26.80;;;;;;5019685;28;20599;-72
2022/07/19 07:51:24;;;;;;;0.80;0.60;;;40.60;25.90;;;;;;5020245;28;20413;-72
2022/07/19 07:53:51;;;;;;;2.33;0.63;;;41.70;24.70;;;;;;5018971;28;20175;-73
2022/07/19 07:56:16;;;;;;;0.50;0.50;;;42.50;24.70;;;;;;5020299;28;20648;-73
2022/07/19 07:58:42;;;;;;;0.70;0.50;;;43.80;23.60;;;;;;5014774;28;20402;-73
2022/07/19 08:01:08;;;;;;;0.60;0.60;;;43.80;21.80;;;;;;5012557;28;20207;-72
2022/07/19 08:03:33;;;;;;;2.03;0.60;;;43.70;22.10;;;;;;5014722;28;20175;-73
2022/07/19 08:05:59;;;;;;;0.60;0.50;;;44.10;21.80;;;;;;5014482;28;20172;-73
2022/07/19 08:08:26;;;;;;;0.63;0.63;;;44.50;22.80;;;;;;5015376;28;20178;-73
2022/07/19 08:10:53;;;;;;;0.47;0.47;;;44.40;21.10;;;;;;5015702;28;20194;-73
2022/07/19 08:13:19;;;;;;;1.50;0.70;;;44.40;20.90;;;;;;5015765;28;20923;-73
2022/07/19 08:15:44;;;;;;;0.50;0.50;;;44.20;20.50;;;;;;5015968;28;20410;-72
2022/07/19 08:18:10;;;;;;;0.50;0.50;;;44.30;20.80;;;;;;5016111;28;20176;-73
2022/07/19 08:20:36;;;;;;;0.70;0.70;;;44.50;20.40;;;;;;5014089;28;20221;-73
2022/07/19 08:23:02;;;;;;;0.50;0.50;;;45.10;20.70;;;;;;5014327;28;20199;-73
2022/07/19 08:25:27;;;;;;;0.53;0.53;;;45.40;20.90;;;;;;5014820;28;20179;-73
2022/07/19 08:27:53;;;;;;;0.60;0.40;;;46.00;20.60;;;;;;5014087;28;20542;-73
2022/07/19 08:30:19;;;;;;;0.70;0.60;;;46.30;20.20;;;;;;5013795;28;20206;-73
2022/07/19 08:32:44;;;;;;;0.80;0.80;;;44.00;20.50;;;;;;5015129;28;20172;-73
2022/07/19 08:35:10;;;;;;;0.87;0.50;;;43.20;21.20;;;;;;5015040;28;20206;-73
2022/07/19 08:37:36;;;;;;;1.67;1.07;;;42.80;21.70;;;;;;5014929;28;20258;-73
2022/07/19 08:40:05;;;;;;;0.67;0.67;;;42.40;20.90;;;;;;5015393;28;20597;-72
2022/07/19 08:42:31;;;;;;;0.37;0.30;;;41.90;21.50;;;;;;5015663;28;20736;-73
2022/07/19 08:45:00;;;;;;;0.50;0.50;;;42.30;22.00;;;;;;5015856;28;20488;-72
2022/07/19 08:47:27;;;;;;;0.50;0.50;;;41.60;21.70;;;;;;5015509;28;20405;-73
2022/07/19 08:49:53;;;;;;;0.60;0.60;;;40.30;22.20;;;;;;5015668;28;20438;-73
2022/07/19 08:52:19;;;;;;;0.60;0.60;;;40.80;22.20;;;;;;5015428;28;20411;-73
2022/07/19 08:54:45;;;;;;;0.67;0.67;;;41.30;21.90;;;;;;5015713;28;20822;-73
2022/07/19 08:59:56;;;;;;;0.97;0.83;;;41.20;21.20;;;;;;5014410;28;20528;-72
2022/07/19 09:02:22;;;;;;;0.63;0.50;;;40.20;22.00;;;;;;5014799;28;20509;-72
2022/07/19 09:05:08;;;;;;;0.80;0.80;;;39.20;22.20;;;;;;5014629;28;20438;-72
2022/07/19 09:07:35;;;;;;;0.70;0.70;;;39.20;22.70;;;;;;5014572;28;20214;-72
2022/07/19 09:10:17;;;;;;;0.83;0.70;;;39.10;22.20;;;;;;5013393;28;20850;-72
2022/07/19 09:13:07;;;;;;;0.50;0.50;;;39.30;23.10;;;;;;5014034;28;20469;-72
2022/07/19 09:15:59;;;;;;;0.93;0.83;;;39.70;23.30;;;;;;5014616;28;20921;-73
2022/07/19 09:18:29;;;;;;;1.20;1.00;;;39.70;23.40;;;;;;5010445;28;20427;-71
2022/07/19 09:20:56;;;;;;;0.50;0.50;;;40.40;22.50;;;;;;5015174;28;20450;-71
2022/07/19 09:23:22;;;;;;;1.53;0.60;;;41.80;22.90;;;;;;5014169;28;20977;-73
2022/07/19 09:25:59;;;;;;;0.70;0.70;;;41.80;22.30;;;;;;5014409;28;20455;-73
2022/07/19 09:28:28;;;;;;;0.93;0.83;;;41.80;22.60;;;;;;5014947;28;20175;-73
2022/07/19 09:30:56;;;;;;;0.93;0.60;;;41.00;22.80;;;;;;5015359;28;20899;-73
2022/07/19 09:33:27;;;;;;;0.50;0.50;;;41.30;23.00;;;;;;5015235;28;20783;-73
2022/07/19 09:35:54;;;;;;;0.80;0.70;;;42.00;23.10;;;;;;5015425;28;20410;-73
2022/07/19 09:38:30;;;;;;;0.87;0.73;;;42.50;22.30;;;;;;5014832;28;20441;-73
2022/07/19 09:41:15;;;;;;;0.77;0.77;;;42.50;21.40;;;;;;5014982;28;20477;-73
2022/07/19 09:43:56;;;;;;;0.70;0.60;;;42.50;21.90;;;;;;5015041;28;20957;-73
2022/07/19 09:46:33;;;;;;;0.80;0.80;;;42.80;21.80;;;;;;5014116;28;20406;-73
2022/07/19 09:49:08;;;;;;;0.50;0.50;;;42.50;22.20;;;;;;5013643;28;20505;-73
2022/07/19 09:51:36;;;;;;;1.00;0.93;;;42.50;21.60;;;;;;5013769;28;20410;-73
2022/07/19 09:54:03;;;;;;;0.60;0.60;;;42.00;22.80;;;;;;5014403;28;20406;-73
2022/07/19 09:56:30;;;;;;;0.90;0.83;;;42.40;22.60;;;;;;5014391;28;20411;-72
2022/07/19 09:58:57;;;;;;;1.63;1.13;;;42.30;23.40;;;;;;5014058;28;20585;-73
2022/07/19 10:01:24;;;;;;;0.80;0.60;;;42.50;23.30;;;;;;5014227;28;20458;-73
2022/07/19 10:03:53;;;;;;;0.80;0.80;;;42.40;22.40;;;;;;5014231;28;20460;-72
2022/07/19 10:06:23;;;;;;;0.80;0.70;;;42.10;22.60;;;;;;5014287;28;20407;-73
2022/07/19 10:08:50;;;;;;;2.40;1.00;;;41.80;23.20;;;;;;5014150;28;20849;-72
2022/07/19 10:11:16;;;;;;;0.90;0.90;;;41.60;23.60;;;;;;5013227;28;20418;-73
2022/07/19 10:13:42;;;;;;;0.93;0.77;;;40.70;24.00;;;;;;5013344;28;20502;-73
2022/07/19 10:16:15;;;;;;;0.80;0.80;;;40.80;24.10;;;;;;5013598;28;20687;-73
2022/07/19 10:18:59;;;;;;;0.70;0.70;;;40.90;24.50;;;;;;5013377;28;20421;-73
2022/07/19 10:21:24;;;;;;;1.10;1.10;;;40.80;24.10;;;;;;5013371;28;20446;-73
2022/07/19 10:23:53;;;;;;;0.80;0.80;;;40.20;24.20;;;;;;5013402;28;20414;-73
2022/07/19 10:26:42;;;;;;;0.50;0.50;;;39.30;23.70;;;;;;5014013;28;20172;-73
2022/07/19 10:29:16;;;;;;;0.90;0.90;;;38.70;25.20;;;;;;5013702;28;20773;-72
2022/07/19 10:31:43;;;;;;;0.60;0.60;;;38.70;25.30;;;;;;5014017;28;20390;-72
2022/07/19 10:34:21;;;;;;;1.27;1.10;;;39.10;26.30;;;;;;5014044;28;20410;-72
2022/07/19 10:36:48;;;;;;;1.77;1.10;;;39.50;24.40;;;;;;5013978;28;20429;-73
2022/07/19 10:39:30;;;;;;;0.80;0.70;;;39.70;26.30;;;;;;5013431;28;20426;-73
2022/07/19 10:42:21;;;;;;;0.80;0.80;;;39.70;25.40;;;;;;5013919;28;20399;-73
2022/07/19 10:45:01;;;;;;;0.80;0.60;;;39.70;24.10;;;;;;5013955;28;20402;-73
2022/07/19 10:47:34;;;;;;;1.43;0.70;;;39.10;25.20;;;;;;5013621;28;20461;-73
2022/07/19 10:50:06;;;;;;;1.07;1.07;;;39.20;25.50;;;;;;5013623;28;20434;-72
2022/07/19 10:52:34;;;;;;;0.70;0.70;;;39.00;24.60;;;;;;5013686;28;20421;-72
2022/07/19 10:55:22;;;;;;;0.70;0.70;;;38.20;25.00;;;;;;5013883;28;20461;-72
2022/07/19 10:57:51;;;;;;;0.70;0.70;;;37.60;26.70;;;;;;5013896;28;20498;-72
2022/07/19 11:00:24;;;;;;;1.43;1.33;;;37.60;25.90;;;;;;5012163;28;20553;-71
2022/07/19 11:02:52;;;;;;;0.70;0.70;;;36.70;25.80;;;;;;5013781;28;20394;-71
2022/07/19 11:05:22;;;;;;;2.03;1.93;;;36.00;26.80;;;;;;5012147;28;20419;-71
2022/07/19 11:07:49;;;;;;;0.53;0.53;;;35.60;28.00;;;;;;5013430;28;20808;-70
2022/07/19 11:10:26;;;;;;;1.00;0.90;;;35.50;28.40;;;;;;5013852;28;20474;-71
2022/07/19 11:12:52;;;;;;;0.53;0.53;;;35.60;28.70;;;;;;5013940;28;20417;-71
2022/07/19 11:15:18;;;;;;;0.77;0.77;;;35.60;26.30;;;;;;5013601;28;20399;-70
2022/07/19 11:17:59;;;;;;;0.53;0.53;;;35.30;26.30;;;;;;5013365;28;20461;-71
2022/07/19 11:20:29;;;;;;;0.47;0.47;;;34.80;27.70;;;;;;5013738;28;20461;-71
2022/07/19 11:22:56;;;;;;;0.60;0.50;;;34.80;29.00;;;;;;5013445;28;20413;-71
2022/07/19 11:25:27;;;;;;;0.60;0.60;;;34.80;27.00;;;;;;5013395;28;20800;-71
2022/07/19 11:27:53;;;;;;;0.80;0.80;;;34.80;27.00;;;;;;5011909;28;20850;-71
2022/07/19 11:30:21;;;;;;;4.00;1.03;;;34.80;27.10;;;;;;5013846;28;20458;-71
2022/07/19 11:32:56;;;;;;;0.67;0.67;;;34.80;27.40;;;;;;5016195;28;20171;-71
2022/07/19 11:35:22;;;;;;;0.60;0.60;;;34.90;28.60;;;;;;5017038;28;20489;-71
2022/07/19 11:37:51;;;;;;;0.50;0.50;;;35.10;28.20;;;;;;5017075;28;20406;-71
2022/07/19 11:40:17;;;;;;;0.90;0.90;;;35.00;27.00;;;;;;5017007;28;20462;-71
2022/07/19 11:42:45;;;;;;;0.50;0.50;;;34.90;27.80;;;;;;5017360;28;20406;-71
2022/07/19 11:45:20;;;;;;;1.17;1.07;;;34.80;26.20;;;;;;5017491;28;20174;-72
2022/07/19 11:47:50;;;;;;;0.57;0.57;;;34.60;25.60;;;;;;5016781;28;20459;-70
2022/07/19 11:50:19;;;;;;;0.70;0.70;;;34.30;26.80;;;;;;5015878;28;20938;-71
2022/07/19 11:52:56;;;;;;;2.87;0.93;;;34.30;28.00;;;;;;5017081;28;20426;-71
2022/07/19 11:55:35;;;;;;;1.00;0.90;;;34.40;27.50;;;;;;5017236;28;20468;-71
2022/07/19 11:58:06;;;;;;;0.67;0.67;;;34.10;26.10;;;;;;5016635;28;20899;-72
2022/07/19 12:00:35;;;;;;;2.40;0.53;;;34.10;28.70;;;;;;5016722;28;20469;-71
2022/07/19 12:03:04;;;;;;;0.67;0.67;;;34.10;28.60;;;;;;5015998;28;20407;-72
2022/07/19 12:05:38;;;;;;;0.80;0.60;;;34.10;27.70;;;;;;5015769;28;20445;-72
2022/07/19 12:08:08;;;;;;;1.10;1.00;;;34.10;26.90;;;;;;5015304;28;20464;-72
2022/07/19 12:10:53;;;;;;;0.80;0.80;;;33.90;28.40;;;;;;5014715;28;20430;-73
2022/07/19 12:13:33;;;;;;;1.23;1.03;;;34.00;28.70;;;;;;5016434;28;20417;-72
2022/07/19 12:16:06;;;;;;;1.43;0.80;;;34.00;30.00;;;;;;5016175;28;20414;-73
2022/07/19 12:18:48;;;;;;;0.70;0.70;;;34.00;28.40;;;;;;5016003;28;20418;-72
2022/07/19 12:21:40;;;;;;;1.87;0.70;;;34.00;29.20;;;;;;5016053;28;20484;-72
2022/07/19 12:24:26;;;;;;;1.23;0.80;;;33.80;28.10;;;;;;5016199;28;20426;-72
2022/07/19 12:26:55;;;;;;;0.70;0.70;;;33.30;28.70;;;;;;5016012;28;20410;-72
2022/07/19 12:29:22;;;;;;;0.77;0.77;;;33.20;28.30;;;;;;5016163;28;20978;-72
2022/07/19 12:31:49;;;;;;;1.10;0.80;;;33.10;28.10;;;;;;5015953;28;20413;-72
2022/07/19 12:34:16;;;;;;;0.83;0.80;;;33.20;28.70;;;;;;5016009;28;20406;-72
2022/07/19 12:36:41;;;;;;;0.63;0.63;;;33.20;29.20;;;;;;5013908;28;20402;-72
2022/07/19 12:39:24;;;;;;;0.60;0.50;;;33.40;29.40;;;;;;5014100;28;20430;-72
2022/07/19 12:41:54;;;;;;;0.80;0.70;;;33.50;29.50;;;;;;5014218;28;20171;-72
2022/07/19 12:44:20;;;;;;;0.87;0.60;;;33.60;28.80;;;;;;5015266;28;20758;-72
2022/07/19 12:46:46;;;;;;;0.50;0.50;;;33.60;27.50;;;;;;5015383;28;20413;-71
2022/07/19 12:49:11;;;;;;;0.70;0.70;;;33.50;27.50;;;;;;5015528;28;20665;-72
2022/07/19 12:51:42;;;;;;;1.50;1.00;;;33.40;27.60;;;;;;5016157;28;20612;-71
2022/07/19 12:54:08;;;;;;;1.13;0.90;;;33.50;27.70;;;;;;5016292;28;20194;-71